Time;durP1;ratioP1;P1;durP2;ratioP2;P2;SDS_P1;SDS_P2;PMS_P1;PMS_P2;Temp;Humidity;BMP_temperature;BMP_pressure;BME280_temperature;BME280_humidity;BME280_pressure;Samples;Min_cycle;Max_cycle;Signal;HPM_P1;HPM_P2
2021/08/20 00:00:54;;;;;;;3.83;2.30;;;27.30;33.10;;;;;;21131428;27;80904;-79
2021/08/20 00:10:56;;;;;;;6.22;2.17;;;27.10;34.30;;;;;;21127992;27;81292;-75
2021/08/20 00:20:58;;;;;;;8.05;2.90;;;26.90;35.10;;;;;;21146493;27;80729;-74
2021/08/20 00:31:01;;;;;;;5.53;2.47;;;26.70;36.00;;;;;;21127766;27;80650;-75
2021/08/20 00:41:04;;;;;;;6.38;2.65;;;26.60;36.80;;;;;;21127074;27;79891;-77
2021/08/20 00:51:35;;;;;;;8.57;4.00;;;26.40;37.80;;;;;;21127268;27;80969;-81
2021/08/20 01:01:37;;;;;;;12.88;4.60;;;26.40;38.30;;;;;;21143850;27;80446;-77
2021/08/20 01:11:39;;;;;;;14.63;5.35;;;26.30;39.60;;;;;;21143827;27;80081;-78
2021/08/20 01:21:41;;;;;;;13.10;4.47;;;26.20;41.80;;;;;;21124118;27;81830;-78
2021/08/20 01:31:44;;;;;;;15.10;5.93;;;26.10;43.90;;;;;;21123251;27;80498;-75
2021/08/20 01:41:50;;;;;;;12.85;5.32;;;26.00;49.10;;;;;;21141589;27;81298;-78
2021/08/20 01:51:57;;;;;;;15.82;4.88;;;25.70;52.30;;;;;;21123821;27;81138;-74
2021/08/20 02:02:01;;;;;;;12.52;4.45;;;25.50;52.10;;;;;;21121584;27;80514;-75
2021/08/20 02:12:05;;;;;;;12.43;4.45;;;25.40;53.50;;;;;;21121763;27;80832;-78
2021/08/20 02:22:08;;;;;;;7.22;4.25;;;25.20;54.80;;;;;;21120773;27;80134;-74
2021/08/20 02:32:10;;;;;;;8.95;4.15;;;25.10;55.80;;;;;;21120619;27;80073;-79
2021/08/20 02:42:12;;;;;;;9.32;3.55;;;25.00;57.30;;;;;;21136022;27;81794;-76
2021/08/20 02:52:15;;;;;;;9.82;3.45;;;24.90;57.50;;;;;;21135140;27;82042;-78
2021/08/20 03:02:18;;;;;;;7.70;3.42;;;24.80;57.90;;;;;;21133650;27;81796;-82
2021/08/20 03:12:22;;;;;;;9.57;3.92;;;24.70;58.00;;;;;;21134832;27;80689;-81
2021/08/20 03:22:24;;;;;;;10.07;4.35;;;24.60;58.30;;;;;;21133349;27;82273;-85
2021/08/20 03:32:45;;;;;;;10.27;3.72;;;24.50;58.70;;;;;;21139811;27;80809;-80
2021/08/20 03:42:53;;;;;;;13.32;5.32;;;24.50;59.60;;;;;;21151987;27;80759;-80
2021/08/20 03:53:00;;;;;;;9.80;3.70;;;24.30;61.70;;;;;;21133763;27;81663;-80
2021/08/20 04:03:06;;;;;;;10.77;4.05;;;24.30;58.70;;;;;;21131461;27;81338;-80
2021/08/20 04:13:17;;;;;;;10.45;3.65;;;24.20;60.20;;;;;;21149202;27;81960;-75
2021/08/20 04:23:27;;;;;;;11.60;4.20;;;24.20;59.90;;;;;;21130142;27;80801;-80
2021/08/20 04:33:37;;;;;;;7.40;3.90;;;24.00;60.40;;;;;;21129878;27;80591;-79
2021/08/20 04:43:50;;;;;;;7.60;3.45;;;24.00;58.60;;;;;;21148710;27;82844;-76
2021/08/20 04:53:57;;;;;;;6.35;3.85;;;24.00;60.50;;;;;;21140858;27;80578;-83
2021/08/20 05:04:04;;;;;;;9.98;3.63;;;23.90;60.70;;;;;;21128510;27;80135;-80
2021/08/20 05:14:09;;;;;;;12.48;4.05;;;23.80;61.00;;;;;;21144112;27;81050;-76
2021/08/20 05:24:12;;;;;;;13.48;4.50;;;23.80;61.50;;;;;;21154461;27;81588;-80
2021/08/20 05:34:18;;;;;;;7.38;3.67;;;23.70;62.40;;;;;;21159783;27;82063;-75
2021/08/20 05:44:21;;;;;;;18.02;5.05;;;23.60;62.70;;;;;;21200139;27;80623;-82
2021/08/20 05:54:24;;;;;;;13.88;4.22;;;23.50;63.00;;;;;;21201090;27;81677;-84
2021/08/20 06:04:27;;;;;;;9.48;4.22;;;23.50;63.00;;;;;;21201790;27;81387;-82
2021/08/20 06:14:30;;;;;;;14.50;4.68;;;23.60;62.70;;;;;;21198234;27;81666;-79
2021/08/20 06:24:32;;;;;;;10.68;4.78;;;23.80;62.90;;;;;;21201453;27;81430;-83
2021/08/20 06:34:35;;;;;;;15.05;4.82;;;23.90;62.30;;;;;;21196463;27;80880;-72
2021/08/20 06:44:36;;;;;;;17.88;5.75;;;24.00;62.50;;;;;;21211829;27;81269;-69
2021/08/20 06:54:39;;;;;;;16.33;6.38;;;24.20;61.50;;;;;;21189176;27;81477;-70
2021/08/20 07:04:41;;;;;;;16.65;6.03;;;24.40;60.90;;;;;;21193202;27;81006;-73
2021/08/20 07:14:43;;;;;;;12.93;5.05;;;24.50;60.70;;;;;;21192631;27;81771;-68
2021/08/20 07:24:45;;;;;;;10.90;4.97;;;24.70;59.90;;;;;;21219514;27;81190;-69
2021/08/20 07:34:47;;;;;;;12.63;4.82;;;24.90;59.30;;;;;;21195873;27;81170;-69
2021/08/20 07:44:51;;;;;;;12.55;5.20;;;24.90;58.90;;;;;;21204571;27;81008;-67
2021/08/20 07:54:53;;;;;;;13.95;5.65;;;25.00;58.90;;;;;;21205244;27;82111;-66
2021/08/20 08:04:55;;;;;;;12.35;4.40;;;25.40;57.40;;;;;;21224125;27;80979;-66
2021/08/20 08:14:57;;;;;;;11.10;4.95;;;25.60;55.90;;;;;;21199234;27;81947;-70
2021/08/20 08:25:00;;;;;;;11.73;4.70;;;25.80;55.40;;;;;;21220302;27;80504;-68
2021/08/20 08:35:03;;;;;;;10.70;4.68;;;26.20;54.30;;;;;;21217167;27;82752;-65
2021/08/20 08:45:06;;;;;;;14.07;4.40;;;26.50;53.10;;;;;;21203114;27;81858;-67
2021/08/20 08:55:10;;;;;;;12.93;4.63;;;26.70;51.90;;;;;;21197783;27;81338;-68
2021/08/20 09:05:12;;;;;;;20.27;5.85;;;27.00;51.10;;;;;;21197163;27;82312;-70
2021/08/20 09:15:20;;;;;;;14.65;5.50;;;27.40;49.90;;;;;;21214882;27;82048;-67
2021/08/20 09:25:43;;;;;;;13.45;5.70;;;27.80;49.00;;;;;;21218681;27;81264;-70
2021/08/20 09:36:27;;;;;;;13.65;5.45;;;27.90;48.10;;;;;;21217860;27;82681;-75
2021/08/20 09:46:40;;;;;;;10.55;4.70;;;28.30;48.30;;;;;;21164057;27;81865;-68
2021/08/20 09:56:43;;;;;;;12.48;4.88;;;29.20;44.50;;;;;;21195753;27;81450;-69
2021/08/20 10:06:47;;;;;;;13.27;4.80;;;30.00;42.30;;;;;;21192534;27;80850;-71
2021/08/20 10:16:50;;;;;;;9.13;5.18;;;31.10;40.10;;;;;;21191402;27;82152;-72
2021/08/20 10:26:55;;;;;;;17.05;4.40;;;32.00;37.60;;;;;;21192405;27;81365;-69
2021/08/20 10:37:05;;;;;;;10.30;5.28;;;33.10;35.00;;;;;;21193796;27;81393;-69
2021/08/20 10:47:07;;;;;;;14.45;4.72;;;34.50;32.60;;;;;;21192665;27;81747;-71
2021/08/20 10:57:35;;;;;;;11.00;5.10;;;36.40;29.20;;;;;;21195644;27;81300;-64
2021/08/20 11:07:43;;;;;;;13.23;4.90;;;38.10;26.40;;;;;;21137379;27;81238;-69
2021/08/20 11:17:49;;;;;;;8.93;4.97;;;41.50;22.80;;;;;;21120757;27;81514;-68
2021/08/20 11:27:56;;;;;;;11.48;5.90;;;44.50;20.00;;;;;;21119028;27;81152;-69
2021/08/20 11:37:59;;;;;;;12.43;4.93;;;46.40;17.90;;;;;;21118834;27;82677;-68
2021/08/20 11:48:01;;;;;;;6.93;4.25;;;48.00;16.60;;;;;;21120865;27;81671;-68
2021/08/20 11:58:03;;;;;;;12.43;4.60;;;50.40;15.20;;;;;;21118279;27;81279;-70
2021/08/20 12:08:18;;;;;;;7.68;4.03;;;50.90;15.00;;;;;;21058198;27;81348;-69
2021/08/20 12:18:25;;;;;;;10.60;5.13;;;51.60;13.80;;;;;;21065337;27;81124;-69
2021/08/20 12:28:27;;;;;;;9.80;5.63;;;50.40;14.30;;;;;;21042252;27;81792;-66
2021/08/20 12:38:30;;;;;;;15.98;4.78;;;50.20;13.80;;;;;;21035598;27;80634;-66
2021/08/20 12:48:33;;;;;;;6.30;4.43;;;51.00;13.40;;;;;;21060525;27;81301;-66
2021/08/20 12:58:36;;;;;;;6.45;4.28;;;53.10;12.10;;;;;;21042738;27;80730;-66
2021/08/20 13:08:37;;;;;;;7.47;4.78;;;54.20;11.70;;;;;;21121609;27;80129;-69
2021/08/20 13:18:39;;;;;;;7.00;5.05;;;52.90;12.20;;;;;;21142457;27;80700;-75
2021/08/20 13:28:42;;;;;;;6.43;3.55;;;46.10;14.60;;;;;;21137794;27;79926;-70
2021/08/20 13:38:46;;;;;;;7.80;4.22;;;44.50;14.00;;;;;;21139931;27;80664;-70
2021/08/20 13:48:51;;;;;;;7.30;3.75;;;46.70;12.80;;;;;;21142058;27;83113;-69
2021/08/20 13:58:53;;;;;;;6.47;4.50;;;49.40;11.20;;;;;;21139877;27;81012;-68
2021/08/20 14:08:54;;;;;;;9.68;4.15;;;48.00;11.30;;;;;;21134592;27;82568;-66
2021/08/20 14:18:56;;;;;;;11.98;4.05;;;48.70;11.30;;;;;;21122406;27;80280;-68
2021/08/20 14:28:58;;;;;;;8.38;5.20;;;49.70;10.70;;;;;;21139318;27;80361;-69
2021/08/20 14:39:00;;;;;;;8.85;6.05;;;54.40;9.70;;;;;;21194126;27;81269;-68
2021/08/20 14:49:01;;;;;;;6.47;5.97;;;55.70;9.50;;;;;;21224535;27;79955;-64
2021/08/20 14:59:03;;;;;;;6.93;5.73;;;57.30;9.60;;;;;;21198432;27;79989;-66
2021/08/20 15:09:05;;;;;;;10.77;5.57;;;53.90;10.10;;;;;;21118625;27;81106;-66
2021/08/20 15:19:07;;;;;;;5.55;4.72;;;52.10;10.70;;;;;;21136596;27;80492;-69
2021/08/20 15:29:09;;;;;;;8.15;4.10;;;46.10;12.10;;;;;;21135991;27;81341;-68
2021/08/20 15:39:12;;;;;;;17.15;6.82;;;43.10;12.90;;;;;;21136217;27;80038;-68
2021/08/20 15:49:14;;;;;;;6.65;4.03;;;41.80;17.10;;;;;;21149248;27;80744;-67
2021/08/20 15:59:17;;;;;;;7.72;3.50;;;42.60;13.50;;;;;;21127606;27;79971;-66
2021/08/20 16:09:19;;;;;;;6.50;4.10;;;44.60;12.50;;;;;;21148301;27;80588;-66
2021/08/20 16:19:20;;;;;;;4.75;3.30;;;43.70;14.00;;;;;;21130413;27;81348;-65
2021/08/20 16:29:22;;;;;;;5.68;3.50;;;43.30;13.50;;;;;;21129350;27;81817;-67
2021/08/20 16:39:25;;;;;;;4.40;3.60;;;40.70;14.60;;;;;;21129865;27;81104;-66
2021/08/20 16:49:27;;;;;;;7.05;3.55;;;38.40;16.20;;;;;;21127917;27;80984;-67
2021/08/20 16:59:29;;;;;;;9.75;3.70;;;38.70;16.60;;;;;;21126955;27;80766;-66
2021/08/20 17:09:31;;;;;;;6.85;3.53;;;37.90;16.10;;;;;;21127993;27;81170;-65
2021/08/20 17:19:38;;;;;;;8.77;3.33;;;37.00;16.90;;;;;;21126904;27;81907;-65
2021/08/20 17:29:40;;;;;;;6.90;3.30;;;36.00;18.30;;;;;;21126558;27;81274;-66
2021/08/20 17:39:42;;;;;;;6.72;3.75;;;35.50;21.10;;;;;;21126229;27;81002;-71
2021/08/20 17:49:44;;;;;;;6.03;3.80;;;35.00;19.10;;;;;;21142602;27;79993;-68
2021/08/20 17:59:46;;;;;;;7.53;3.13;;;34.70;19.70;;;;;;21143031;27;80943;-68
2021/08/20 18:09:48;;;;;;;6.13;3.50;;;34.40;19.90;;;;;;21140715;27;82412;-67
2021/08/20 18:19:50;;;;;;;8.43;4.10;;;35.80;18.90;;;;;;21122608;27;80757;-68
2021/08/20 18:29:52;;;;;;;8.98;3.70;;;34.90;18.80;;;;;;21122917;27;80797;-71
2021/08/20 18:39:53;;;;;;;7.40;3.75;;;36.00;19.20;;;;;;21123010;27;80024;-66
2021/08/20 18:49:55;;;;;;;14.07;3.58;;;33.80;20.40;;;;;;21121376;27;81319;-66
2021/08/20 18:59:57;;;;;;;7.05;3.13;;;33.00;20.50;;;;;;21120912;27;80133;-68
2021/08/20 19:09:59;;;;;;;13.65;4.22;;;32.60;21.80;;;;;;21121375;27;80707;-71
2021/08/20 19:20:03;;;;;;;6.75;3.70;;;32.20;21.80;;;;;;21128534;27;80792;-65
2021/08/20 19:30:07;;;;;;;6.68;3.65;;;31.90;21.50;;;;;;21134085;27;81003;-67
2021/08/20 19:40:11;;;;;;;7.82;4.30;;;31.70;24.30;;;;;;21134388;27;80508;-65
2021/08/20 19:50:15;;;;;;;9.13;3.88;;;31.40;25.40;;;;;;21133095;27;80680;-68
2021/08/20 20:00:18;;;;;;;10.27;4.35;;;31.10;26.30;;;;;;21152004;27;81690;-72
2021/08/20 20:10:19;;;;;;;18.02;5.13;;;30.90;25.50;;;;;;21132073;27;81188;-67
2021/08/20 20:20:22;;;;;;;13.00;4.70;;;30.60;25.10;;;;;;21149114;27;82042;-64
2021/08/20 20:30:23;;;;;;;7.60;4.28;;;30.40;26.10;;;;;;21128661;27;79992;-66
2021/08/20 20:40:26;;;;;;;9.50;4.47;;;30.30;25.40;;;;;;21129900;27;80559;-70
2021/08/20 20:50:28;;;;;;;9.55;4.55;;;30.00;25.00;;;;;;21147428;27;81035;-69
2021/08/20 21:00:30;;;;;;;9.32;4.25;;;29.80;25.40;;;;;;21126269;27;80634;-73
2021/08/20 21:10:33;;;;;;;10.95;4.97;;;29.50;25.40;;;;;;21184534;27;81045;-71
2021/08/20 21:20:35;;;;;;;9.60;4.60;;;29.30;26.00;;;;;;21212189;27;80984;-71
2021/08/20 21:30:39;;;;;;;13.02;4.93;;;29.00;26.30;;;;;;21210601;27;82027;-71
2021/08/20 21:40:41;;;;;;;13.02;5.72;;;28.80;26.70;;;;;;21210892;27;80159;-73
2021/08/20 21:50:43;;;;;;;9.05;5.38;;;28.50;27.40;;;;;;21221884;27;80520;-73
2021/08/20 22:00:45;;;;;;;14.30;4.88;;;28.40;27.40;;;;;;21123671;27;82316;-72
2021/08/20 22:10:48;;;;;;;13.73;5.47;;;28.20;27.30;;;;;;21122719;27;81126;-73
2021/08/20 22:20:50;;;;;;;8.38;4.78;;;28.00;27.50;;;;;;21121638;27;80808;-73
2021/08/20 22:30:52;;;;;;;10.98;5.93;;;27.90;28.20;;;;;;21140299;27;81225;-73
2021/08/20 22:40:54;;;;;;;10.57;5.40;;;27.60;28.80;;;;;;21121482;27;80797;-73
2021/08/20 22:50:57;;;;;;;15.68;8.13;;;27.40;29.30;;;;;;21122882;27;81095;-73
2021/08/20 23:00:59;;;;;;;12.77;6.22;;;27.20;30.30;;;;;;21135317;27;81882;-73
2021/08/20 23:11:01;;;;;;;15.77;6.00;;;27.00;30.90;;;;;;21135073;27;81750;-73
2021/08/20 23:21:03;;;;;;;11.00;5.32;;;27.00;31.00;;;;;;21134206;27;82060;-73
2021/08/20 23:31:05;;;;;;;12.20;5.90;;;26.80;30.50;;;;;;21151313;27;82388;-73
2021/08/20 23:41:09;;;;;;;12.75;5.28;;;26.70;30.00;;;;;;21151540;27;82040;-74
2021/08/20 23:51:11;;;;;;;11.77;5.32;;;26.60;31.20;;;;;;21149903;27;81825;-73
